createdAt,value
2023-04-15T00:01:35.463Z,99664.78
2023-04-15T00:03:37.316Z,99664.41
2023-04-15T00:05:39.412Z,99662.31
2023-04-15T00:07:41.021Z,99661.72
2023-04-15T00:09:42.690Z,99664.47
2023-04-15T00:11:44.324Z,99657.59
2023-04-15T00:13:46.093Z,99660.91
2023-04-15T00:15:47.763Z,99662.81
2023-04-15T00:17:51.846Z,99658.19
2023-04-15T00:19:53.566Z,99653.44
2023-04-15T00:21:55.207Z,99651.84
2023-04-15T00:23:56.907Z,99649.84
2023-04-15T00:25:58.546Z,99645.34
2023-04-15T00:28:00.292Z,99651.44
2023-04-15T00:30:02.010Z,99644.66
2023-04-15T00:32:03.742Z,99645.28
2023-04-15T00:34:06.723Z,99654.88
2023-04-15T00:36:08.446Z,99642.47
2023-04-15T00:38:10.183Z,99647.47
2023-04-15T00:40:13.090Z,99643.25
2023-04-15T00:42:15.596Z,99647.53
2023-04-15T00:44:17.284Z,99640.16
2023-04-15T00:46:20.189Z,99647.75
2023-04-15T00:48:21.887Z,99646.22
2023-04-15T00:50:25.245Z,99646.53
2023-04-15T00:52:26.864Z,99644.44
2023-04-15T00:54:28.572Z,99638.19
2023-04-15T00:56:30.745Z,99646.97
2023-04-15T00:58:32.885Z,99648.56
2023-04-15T01:00:34.696Z,99639.47
2023-04-15T01:02:36.725Z,99645.56
2023-04-15T01:04:38.642Z,99644.44
2023-04-15T01:06:41.891Z,99646.13
2023-04-15T01:08:43.765Z,99647.63
2023-04-15T01:10:45.651Z,99649.59
2023-04-15T01:12:47.286Z,99648.41
2023-04-15T01:14:48.882Z,99650.41
2023-04-15T01:16:50.474Z,99653.19
2023-04-15T01:18:52.558Z,99650.88
2023-04-15T01:20:54.338Z,99646.22
2023-04-15T01:22:57.323Z,99641.22
2023-04-15T01:25:09.767Z,99642.81
2023-04-15T01:27:12.633Z,99645.38
2023-04-15T01:29:14.260Z,99648.22
2023-04-15T01:31:15.982Z,99652.00
2023-04-15T01:33:17.560Z,99645.19
2023-04-15T01:35:19.261Z,99646.09
2023-04-15T01:37:20.862Z,99647.56
2023-04-15T01:39:22.482Z,99649.09
2023-04-15T01:41:25.896Z,99641.66
2023-04-15T01:43:28.923Z,99650.19
2023-04-15T01:45:30.493Z,99656.25
2023-04-15T01:47:32.095Z,99657.25
2023-04-15T01:49:34.059Z,99647.16
2023-04-15T01:51:35.626Z,99649.25
2023-04-15T01:53:37.353Z,99656.19
2023-04-15T01:55:38.901Z,99656.91
2023-04-15T01:57:40.686Z,99653.31
2023-04-15T01:59:43.835Z,99657.09
2023-04-15T02:01:45.494Z,99649.13
2023-04-15T02:03:47.205Z,99647.53
2023-04-15T02:05:48.862Z,99652.34
2023-04-15T02:07:50.455Z,99650.63
2023-04-15T02:09:52.036Z,99654.81
2023-04-15T02:11:53.781Z,99657.56
2023-04-15T02:13:55.332Z,99654.09
2023-04-15T02:15:58.798Z,99651.09
2023-04-15T02:18:00.405Z,99657.06
2023-04-15T02:20:02.037Z,99658.66
2023-04-15T02:22:03.749Z,99652.50
2023-04-15T02:24:05.793Z,99655.56
2023-04-15T02:26:07.477Z,99651.84
2023-04-15T02:28:09.041Z,99647.00
2023-04-15T02:30:11.156Z,99650.00
2023-04-15T02:32:14.238Z,99641.56
2023-04-15T02:34:15.888Z,99640.28
2023-04-15T02:36:17.432Z,99645.97
2023-04-15T02:38:19.004Z,99640.94
2023-04-15T02:40:20.743Z,99647.94
2023-04-15T02:42:22.317Z,99654.34
2023-04-15T02:44:23.928Z,99653.81
2023-04-15T02:46:25.583Z,99653.31
2023-04-15T02:48:28.757Z,99654.91
2023-04-15T02:50:30.321Z,99649.91
2023-04-15T02:52:31.880Z,99648.81
2023-04-15T02:54:33.473Z,99650.41
2023-04-15T02:56:34.996Z,99655.09
2023-04-15T02:58:36.525Z,99652.59
2023-04-15T03:00:38.296Z,99648.75
2023-04-15T03:02:40.163Z,99649.53
2023-04-15T03:04:43.132Z,99654.31
2023-04-15T03:06:44.675Z,99655.06
2023-04-15T03:08:46.325Z,99656.44
2023-04-15T03:10:47.887Z,99655.22
2023-04-15T03:12:49.466Z,99655.28
2023-04-15T03:14:50.977Z,99655.88
2023-04-15T03:16:52.652Z,99656.53
2023-04-15T03:18:54.217Z,99663.88
2023-04-15T03:20:57.153Z,99663.88
2023-04-15T03:22:58.705Z,99659.72
2023-04-15T03:25:00.383Z,99655.50
2023-04-15T03:27:01.917Z,99654.28
2023-04-15T03:29:03.679Z,99660.47
2023-04-15T03:31:05.569Z,99661.34
2023-04-15T03:33:07.318Z,99662.22
2023-04-15T03:35:09.328Z,99656.03
2023-04-15T03:37:12.222Z,99658.50
2023-04-15T03:39:13.923Z,99662.28
2023-04-15T03:41:16.115Z,99658.31
2023-04-15T03:43:17.708Z,99658.84
2023-04-15T03:45:19.264Z,99658.78
2023-04-15T03:47:20.927Z,99663.66
2023-04-15T03:49:22.493Z,99664.88
2023-04-15T03:51:24.044Z,99657.94
2023-04-15T03:53:29.506Z,99654.97
2023-04-15T03:55:31.029Z,99654.56
2023-04-15T03:57:32.832Z,99655.50
2023-04-15T03:59:34.398Z,99654.56
2023-04-15T04:01:36.144Z,99653.56
2023-04-15T04:03:37.972Z,99655.19
2023-04-15T04:05:40.068Z,99656.00
2023-04-15T04:07:41.572Z,99654.72
2023-04-15T04:09:46.687Z,99652.47
2023-04-15T04:11:50.005Z,99652.59
2023-04-15T04:13:51.585Z,99652.38
2023-04-15T04:15:53.195Z,99650.91
2023-04-15T04:17:54.793Z,99651.47
2023-04-15T04:19:56.389Z,99653.06
2023-04-15T04:21:58.081Z,99652.84
2023-04-15T04:23:59.753Z,99654.81
2023-04-15T04:26:02.677Z,99648.69
2023-04-15T04:28:04.553Z,99653.28
2023-04-15T04:30:07.429Z,99652.47
2023-04-15T04:32:09.062Z,99654.75
2023-04-15T04:34:10.675Z,99653.94
2023-04-15T04:36:12.319Z,99655.56
2023-04-15T04:38:13.835Z,99659.59
2023-04-15T04:40:15.807Z,99668.47
2023-04-15T04:42:18.695Z,99670.06
2023-04-15T04:44:20.398Z,99674.69
2023-04-15T04:46:21.990Z,99677.13
2023-04-15T04:48:24.852Z,99673.97
2023-04-15T04:50:26.405Z,99671.34
2023-04-15T04:52:27.947Z,99674.88
2023-04-15T04:54:29.470Z,99667.66
2023-04-15T04:56:31.031Z,99673.09
2023-04-15T04:58:33.971Z,99669.88
2023-04-15T05:00:35.566Z,99675.78
2023-04-15T05:02:37.185Z,99674.69
2023-04-15T05:04:38.845Z,99679.53
2023-04-15T05:06:40.379Z,99679.31
2023-04-15T05:08:41.977Z,99684.16
2023-04-15T05:10:43.748Z,99690.91
2023-04-15T05:12:45.284Z,99687.94
2023-04-15T05:14:48.228Z,99690.94
2023-04-15T05:16:49.854Z,99695.44
2023-04-15T05:18:51.418Z,99697.88
2023-04-15T05:20:52.985Z,99694.06
2023-04-15T05:22:54.658Z,99693.00
2023-04-15T05:24:56.220Z,99696.25
2023-04-15T05:26:57.905Z,99704.88
2023-04-15T05:28:59.607Z,99695.44
2023-04-15T05:31:02.995Z,99699.75
2023-04-15T05:33:04.816Z,99701.94
2023-04-15T05:35:07.366Z,99701.09
2023-04-15T05:37:08.883Z,99699.22
2023-04-15T05:39:10.524Z,99705.09
2023-04-15T05:41:12.820Z,99704.22
2023-04-15T05:43:14.481Z,99705.53
2023-04-15T05:45:16.081Z,99700.47
2023-04-15T05:47:19.120Z,99699.09
2023-04-15T05:49:20.715Z,99700.94
2023-04-15T05:51:22.363Z,99706.75
2023-04-15T05:53:24.074Z,99701.66
2023-04-15T05:55:25.687Z,99706.22
2023-04-15T05:57:27.373Z,99708.03
2023-04-15T05:59:28.930Z,99706.41
2023-04-15T06:01:30.563Z,99712.81
2023-04-15T06:03:33.640Z,99717.56
2023-04-15T06:05:35.328Z,99718.31
2023-04-15T06:07:36.878Z,99712.09
2023-04-15T06:09:39.811Z,99717.41
2023-04-15T06:11:41.536Z,99708.44
2023-04-15T06:13:43.449Z,99712.59
2023-04-15T06:15:44.960Z,99717.88
2023-04-15T06:17:46.688Z,99710.28
2023-04-15T06:19:49.711Z,99720.41
2023-04-15T06:21:51.333Z,99720.59
2023-04-15T06:23:53.371Z,99721.53
2023-04-15T06:25:54.951Z,99719.06
2023-04-15T06:27:56.511Z,99716.00
2023-04-15T06:29:58.190Z,99719.59
2023-04-15T06:31:59.776Z,99721.19
2023-04-15T06:34:01.411Z,99710.91
2023-04-15T06:36:04.363Z,99716.97
2023-04-15T06:38:05.990Z,99712.22
2023-04-15T06:40:09.130Z,99720.22
2023-04-15T06:42:11.354Z,99730.63
2023-04-15T06:44:13.195Z,99728.25
2023-04-15T06:46:14.780Z,99721.47
2023-04-15T06:48:16.462Z,99729.53
2023-04-15T06:50:18.259Z,99724.28
2023-04-15T06:52:21.202Z,99738.06
2023-04-15T06:54:22.779Z,99735.44
2023-04-15T06:56:24.449Z,99737.75
2023-04-15T06:58:26.009Z,99730.38
2023-04-15T07:00:27.829Z,99731.66
2023-04-15T07:02:29.697Z,99731.59
2023-04-15T07:04:31.479Z,99724.69
2023-04-15T07:06:33.272Z,99725.09
2023-04-15T07:08:36.364Z,99722.09
2023-04-15T07:10:38.008Z,99721.53
2023-04-15T07:12:39.659Z,99719.91
2023-04-15T07:14:41.222Z,99719.63
2023-04-15T07:16:42.849Z,99721.41
2023-04-15T07:18:44.472Z,99723.31
2023-04-15T07:20:46.119Z,99718.91
2023-04-15T07:22:47.805Z,99717.09
2023-04-15T07:24:50.890Z,99721.13
2023-04-15T07:26:53.501Z,99717.34
2023-04-15T07:28:55.063Z,99715.28
2023-04-15T07:30:56.713Z,99716.69
2023-04-15T07:32:58.542Z,99719.28
2023-04-15T07:35:00.204Z,99718.31
2023-04-15T07:37:01.803Z,99720.31
2023-04-15T07:39:03.884Z,99727.75
2023-04-15T07:41:07.280Z,99727.50
2023-04-15T07:43:08.931Z,99731.59
2023-04-15T07:45:11.512Z,99736.09
2023-04-15T07:47:13.065Z,99732.13
2023-04-15T07:49:14.655Z,99740.81
2023-04-15T07:51:16.312Z,99741.91
2023-04-15T07:53:17.967Z,99742.81
2023-04-15T07:55:19.581Z,99739.94
2023-04-15T07:57:22.672Z,99736.13
2023-04-15T07:59:24.418Z,99738.44
2023-04-15T08:01:25.972Z,99733.03
2023-04-15T08:03:27.825Z,99732.53
2023-04-15T08:05:29.551Z,99741.22
2023-04-15T08:07:31.382Z,99733.13
2023-04-15T08:09:32.960Z,99730.78
2023-04-15T08:11:37.658Z,99739.16
2023-04-15T08:13:40.586Z,99734.75
2023-04-15T08:15:42.188Z,99747.84
2023-04-15T08:17:43.830Z,99735.50
2023-04-15T08:19:45.440Z,99734.47
2023-04-15T08:21:47.055Z,99736.94
2023-04-15T08:23:50.302Z,99730.31
2023-04-15T08:25:51.845Z,99730.50
2023-04-15T08:27:55.725Z,99728.69
2023-04-15T08:29:58.642Z,99736.47
2023-04-15T08:32:00.782Z,99727.13
2023-04-15T08:34:02.469Z,99727.97
2023-04-15T08:36:04.551Z,99729.94
2023-04-15T08:38:06.148Z,99732.69
2023-04-15T08:40:08.890Z,99734.94
2023-04-15T08:42:16.231Z,99741.19
2023-04-15T08:44:18.417Z,99732.97
2023-04-15T08:46:21.737Z,99744.56
2023-04-15T08:48:24.178Z,99738.09
2023-04-15T08:50:28.979Z,99744.66
2023-04-15T08:52:31.061Z,99749.53
2023-04-15T08:54:34.396Z,99748.09
2023-04-15T08:56:37.145Z,99749.72
2023-04-15T08:58:38.926Z,99748.47
2023-04-15T09:00:40.706Z,99745.47
2023-04-15T09:02:44.059Z,99741.38
2023-04-15T09:04:45.739Z,99746.97
2023-04-15T09:06:47.307Z,99746.66
2023-04-15T09:08:49.505Z,99750.06
2023-04-15T09:10:51.087Z,99734.13
2023-04-15T09:12:55.647Z,99742.28
2023-04-15T09:14:57.439Z,99743.25
2023-04-15T09:17:00.560Z,99743.69
2023-04-15T09:19:20.814Z,99747.03
2023-04-15T09:21:22.350Z,99751.69
2023-04-15T09:23:24.024Z,99750.41
2023-04-15T09:25:27.419Z,99743.88
2023-04-15T09:27:29.048Z,99748.97
2023-04-15T09:29:30.653Z,99750.72
2023-04-15T09:31:32.389Z,99751.53
2023-04-15T09:33:34.566Z,99756.59
2023-04-15T09:35:37.595Z,99757.88
2023-04-15T09:37:39.183Z,99762.50
2023-04-15T09:39:47.855Z,99762.50
2023-04-15T09:42:04.788Z,99755.66
2023-04-15T09:44:06.643Z,99754.88
2023-04-15T09:46:08.517Z,99760.78
2023-04-15T09:48:18.771Z,99760.94
2023-04-15T09:50:21.017Z,99766.16
2023-04-15T09:52:24.056Z,99761.97
2023-04-15T09:54:25.627Z,99762.16
2023-04-15T09:56:34.341Z,99758.94
2023-04-15T09:58:36.240Z,99761.94
2023-04-15T10:00:38.100Z,99762.56
2023-04-15T10:02:41.654Z,99763.81
2023-04-15T10:04:44.639Z,99766.63
2023-04-15T10:06:46.144Z,99772.28
2023-04-15T10:08:49.432Z,99775.13
2023-04-15T10:10:51.592Z,99775.50
2023-04-15T10:12:55.133Z,99781.13
2023-04-15T10:14:59.348Z,99775.72
2023-04-15T10:17:02.506Z,99776.25
2023-04-15T10:19:06.028Z,99781.19
2023-04-15T10:21:09.357Z,99776.94
2023-04-15T10:23:13.368Z,99778.81
2023-04-15T10:25:16.964Z,99786.28
2023-04-15T10:27:20.347Z,99793.53
2023-04-15T10:29:23.199Z,99788.25
2023-04-15T10:31:28.740Z,99789.16
2023-04-15T10:33:30.750Z,99786.91
2023-04-15T10:35:33.327Z,99789.75
2023-04-15T10:37:36.470Z,99788.41
2023-04-15T10:39:42.644Z,99792.88
2023-04-15T10:41:45.625Z,99806.13
2023-04-15T10:43:52.105Z,99799.09
2023-04-15T10:45:53.648Z,99805.97
2023-04-15T10:47:56.362Z,99800.47
2023-04-15T10:49:59.236Z,99805.06
2023-04-15T10:52:01.789Z,99808.69
2023-04-15T10:54:08.727Z,99804.44
2023-04-15T10:56:10.314Z,99804.91
2023-04-15T10:58:13.185Z,99811.09
2023-04-15T11:00:17.016Z,99821.44
2023-04-15T11:02:18.843Z,99818.84
2023-04-15T11:04:52.287Z,99818.34
2023-04-15T11:07:05.701Z,99817.66
2023-04-15T11:09:07.429Z,99813.19
2023-04-15T11:11:08.956Z,99820.69
2023-04-15T11:13:18.039Z,99821.00
2023-04-15T11:15:28.715Z,99822.44
2023-04-15T11:17:30.462Z,99821.31
2023-04-15T11:19:38.506Z,99819.03
2023-04-15T11:21:40.145Z,99824.97
2023-04-15T11:23:43.351Z,99823.84
2023-04-15T11:25:45.400Z,99826.91
2023-04-15T11:27:46.940Z,99829.50
2023-04-15T11:29:49.891Z,99835.44
2023-04-15T11:31:51.524Z,99836.41
2023-04-15T11:33:58.192Z,99842.03
2023-04-15T11:35:59.901Z,99838.44
2023-04-15T11:38:03.599Z,99841.16
2023-04-15T11:40:07.114Z,99848.38
2023-04-15T11:42:16.932Z,99849.31
2023-04-15T11:44:18.880Z,99846.59
2023-04-15T11:46:28.652Z,99848.19
2023-04-15T11:48:32.052Z,99845.19
2023-04-15T11:50:40.483Z,99845.59
2023-04-15T11:52:42.246Z,99849.06
2023-04-15T11:54:43.847Z,99850.84
2023-04-15T11:56:50.899Z,99851.28
2023-04-15T11:58:53.940Z,99855.19
2023-04-15T12:00:58.566Z,99857.53
2023-04-15T12:03:14.450Z,99861.97
2023-04-15T12:05:16.400Z,99857.03
2023-04-15T12:07:18.057Z,99861.69
2023-04-15T12:09:21.367Z,99862.84
2023-04-15T12:11:29.697Z,99860.13
2023-04-15T12:13:31.311Z,99867.78
2023-04-15T12:15:32.963Z,99864.59
2023-04-15T12:17:51.458Z,99868.00
2023-04-15T12:19:57.456Z,99864.91
2023-04-15T12:22:01.430Z,99867.91
2023-04-15T12:24:05.342Z,99870.50
2023-04-15T12:26:07.150Z,99875.66
2023-04-15T12:28:11.276Z,99864.66
2023-04-15T12:30:13.322Z,99881.44
2023-04-15T12:32:16.288Z,99877.25
2023-04-15T12:34:18.614Z,99872.09
2023-04-15T12:36:21.591Z,99878.00
2023-04-15T12:38:23.216Z,99880.09
2023-04-15T12:40:24.821Z,99877.50
2023-04-15T12:42:26.344Z,99878.00
2023-04-15T12:44:28.639Z,99881.66
2023-04-15T12:46:30.286Z,99876.69
2023-04-15T12:48:31.975Z,99882.13
2023-04-15T12:50:33.557Z,99886.13
2023-04-15T12:52:36.557Z,99883.25
2023-04-15T12:54:39.070Z,99889.34
2023-04-15T12:56:40.608Z,99888.22
2023-04-15T12:58:42.370Z,99891.56
2023-04-15T13:00:44.147Z,99887.41
2023-04-15T13:02:45.812Z,99894.56
2023-04-15T13:04:47.496Z,99891.50
2023-04-15T13:06:49.288Z,99904.31
2023-04-15T13:08:58.183Z,99901.25
2023-04-15T13:11:00.509Z,99909.09
2023-04-15T13:13:02.116Z,99903.84
2023-04-15T13:15:05.604Z,99901.13
2023-04-15T13:17:07.394Z,99903.84
2023-04-15T13:19:08.952Z,99907.34
2023-04-15T13:21:10.588Z,99902.38
2023-04-15T13:23:12.218Z,99907.78
2023-04-15T13:25:15.169Z,99911.63
2023-04-15T13:27:16.836Z,99919.34
2023-04-15T13:29:18.452Z,99919.03
2023-04-15T13:31:19.995Z,99925.41
2023-04-15T13:33:21.654Z,99923.19
2023-04-15T13:35:23.218Z,99921.88
2023-04-15T13:37:26.803Z,99932.91
2023-04-15T13:39:28.397Z,99937.75
2023-04-15T13:41:31.318Z,99941.72
2023-04-15T13:43:32.823Z,99936.34
2023-04-15T13:45:34.501Z,99938.59
2023-04-15T13:47:36.399Z,99947.81
2023-04-15T13:49:37.922Z,99955.16
2023-04-15T13:51:39.552Z,99952.91
2023-04-15T13:53:41.176Z,99952.78
2023-04-15T13:55:42.897Z,99949.25
2023-04-15T13:57:46.148Z,99953.59
2023-04-15T13:59:48.267Z,99952.59
2023-04-15T14:01:50.117Z,99960.72
2023-04-15T14:03:51.870Z,99961.06
2023-04-15T14:05:53.539Z,99964.72
2023-04-15T14:07:55.112Z,99965.53
2023-04-15T14:09:56.868Z,99973.38
2023-04-15T14:11:58.446Z,99973.66
2023-04-15T14:14:01.398Z,99983.69
2023-04-15T14:16:03.240Z,99979.41
2023-04-15T14:18:04.839Z,99989.31
2023-04-15T14:20:08.326Z,99990.78
2023-04-15T14:22:09.887Z,99992.69
2023-04-15T14:24:11.474Z,99995.41
2023-04-15T14:26:13.055Z,100006.25
2023-04-15T14:28:14.857Z,100009.13
2023-04-15T14:30:17.859Z,100017.59
2023-04-15T14:32:19.497Z,100023.19
2023-04-15T14:34:21.033Z,100029.38
2023-04-15T14:36:22.780Z,100036.25
2023-04-15T14:38:24.324Z,100040.41
2023-04-15T14:40:25.950Z,100040.56
2023-04-15T14:42:27.626Z,100045.66
2023-04-15T14:44:29.188Z,100045.53
2023-04-15T14:46:32.137Z,100049.84
2023-04-15T14:48:33.904Z,100049.19
2023-04-15T14:50:35.543Z,100059.88
2023-04-15T14:52:37.214Z,100062.59
2023-04-15T14:54:38.832Z,100063.78
2023-04-15T14:56:40.404Z,100060.28
2023-04-15T14:58:41.988Z,100074.84
2023-04-15T15:00:43.884Z,100075.25
2023-04-15T15:02:46.994Z,100071.88
2023-04-15T15:04:48.803Z,100080.53
2023-04-15T15:06:50.534Z,100079.84
2023-04-15T15:08:52.105Z,100080.91
2023-04-15T15:10:53.658Z,100086.50
2023-04-15T15:12:55.212Z,100091.03
2023-04-15T15:14:56.818Z,100093.75
2023-04-15T15:16:58.588Z,100097.91
2023-04-15T15:19:01.558Z,100104.44
2023-04-15T15:21:03.156Z,100105.16
2023-04-15T15:23:04.738Z,100106.38
2023-04-15T15:25:06.676Z,100115.16
2023-04-15T15:27:08.367Z,100116.25
2023-04-15T15:29:09.966Z,100117.00
2023-04-15T15:31:11.788Z,100114.00
2023-04-15T15:33:13.458Z,100119.69
2023-04-15T15:35:16.396Z,100117.19
2023-04-15T15:37:18.081Z,100119.75
2023-04-15T15:39:19.618Z,100123.47
2023-04-15T15:41:21.070Z,100124.84
2023-04-15T15:43:22.638Z,100136.16
2023-04-15T15:45:24.264Z,100135.53
2023-04-15T15:47:26.095Z,100131.09
2023-04-15T15:49:28.302Z,100137.31
2023-04-15T15:51:31.178Z,100144.22
2023-04-15T15:53:37.073Z,100154.56
2023-04-15T15:55:38.965Z,100157.91
2023-04-15T15:57:40.512Z,100156.19
2023-04-15T15:59:42.080Z,100169.72
2023-04-15T16:01:44.196Z,100166.69
2023-04-15T16:03:45.834Z,100177.78
2023-04-15T16:05:47.514Z,100174.16
2023-04-15T16:07:50.578Z,100175.25
2023-04-15T16:09:53.065Z,100181.59
2023-04-15T16:11:54.693Z,100181.09
2023-04-15T16:13:56.346Z,100187.84
2023-04-15T16:15:57.907Z,100182.53
2023-04-15T16:17:59.588Z,100190.06
2023-04-15T16:20:01.546Z,100185.56
2023-04-15T16:22:03.220Z,100188.56
2023-04-15T16:24:06.836Z,100194.38
2023-04-15T16:26:08.447Z,100199.19
2023-04-15T16:28:22.656Z,100200.88
2023-04-15T16:30:27.872Z,100202.59
2023-04-15T16:32:29.551Z,100211.16
2023-04-15T16:34:31.177Z,100204.44
2023-04-15T16:36:34.318Z,100211.97
2023-04-15T16:38:35.926Z,100215.78
2023-04-15T16:40:38.947Z,100215.09
2023-04-15T16:42:40.569Z,100213.31
2023-04-15T16:44:42.259Z,100211.69
2023-04-15T16:46:43.860Z,100219.31
2023-04-15T16:48:45.490Z,100221.03
2023-04-15T16:50:47.595Z,100224.75
2023-04-15T16:52:49.214Z,100231.25
2023-04-15T16:54:50.732Z,100236.78
2023-04-15T16:56:56.602Z,100238.00
2023-04-15T16:58:58.214Z,100250.03
2023-04-15T17:00:59.923Z,100249.03
2023-04-15T17:03:01.948Z,100248.72
2023-04-15T17:05:05.300Z,100241.50
2023-04-15T17:07:06.876Z,100247.81
2023-04-15T17:09:08.542Z,100250.94
2023-04-15T17:11:10.713Z,100256.66
2023-04-15T17:13:13.677Z,100248.84
2023-04-15T17:15:15.324Z,100254.34
2023-04-15T17:17:16.982Z,100251.97
2023-04-15T17:19:18.553Z,100255.44
2023-04-15T17:21:20.170Z,100259.56
2023-04-15T17:23:21.804Z,100255.44
2023-04-15T17:25:23.770Z,100263.97
2023-04-15T17:27:25.390Z,100271.19
2023-04-15T17:29:28.334Z,100264.16
2023-04-15T17:31:30.369Z,100269.06
2023-04-15T17:33:59.833Z,100283.50
2023-04-15T17:35:53.489Z,100284.69
2023-04-15T17:37:55.059Z,100278.47
2023-04-15T17:39:56.682Z,100284.28
2023-04-15T17:41:58.274Z,100288.38
2023-04-15T17:43:59.797Z,100287.88
2023-04-15T17:46:02.772Z,100288.19
2023-04-15T17:48:04.475Z,100297.38
2023-04-15T17:50:07.579Z,100292.06
2023-04-15T17:52:09.181Z,100302.50
2023-04-15T17:54:10.738Z,100302.50
2023-04-15T17:56:12.334Z,100308.41
2023-04-15T17:58:13.994Z,100315.72
2023-04-15T18:00:16.686Z,100322.81
2023-04-15T18:02:19.668Z,100320.00
2023-04-15T18:04:22.766Z,100324.28
2023-04-15T18:06:26.207Z,100327.50
2023-04-15T18:08:27.962Z,100333.81
2023-04-15T18:10:29.571Z,100332.50
2023-04-15T18:12:31.119Z,100333.09
2023-04-15T18:14:34.943Z,100332.06
2023-04-15T18:16:36.918Z,100336.75
2023-04-15T18:18:39.803Z,100336.22
2023-04-15T18:20:41.329Z,100345.16
2023-04-15T18:22:43.528Z,100343.56
2023-04-15T18:24:45.070Z,100343.75
2023-04-15T18:26:48.876Z,100355.97
2023-04-15T18:28:50.836Z,100358.69
2023-04-15T18:30:52.503Z,100353.56
2023-04-15T18:32:54.105Z,100359.19
2023-04-15T18:34:57.036Z,100353.06
2023-04-15T18:36:58.709Z,100367.22
2023-04-15T18:39:00.302Z,100371.31
2023-04-15T18:41:01.992Z,100377.53
2023-04-15T18:43:03.608Z,100374.03
2023-04-15T18:45:06.037Z,100382.69
2023-04-15T18:47:07.763Z,100384.31
2023-04-15T18:49:09.908Z,100378.41
2023-04-15T18:51:12.852Z,100387.06
2023-04-15T18:53:14.641Z,100387.84
2023-04-15T18:55:18.489Z,100384.41
2023-04-15T18:57:30.844Z,100391.16
2023-04-15T18:59:34.594Z,100393.88
2023-04-15T19:01:36.278Z,100391.16
2023-04-15T19:03:37.881Z,100395.75
2023-04-15T19:05:39.535Z,100400.63
2023-04-15T19:07:42.583Z,100401.38
2023-04-15T19:09:44.306Z,100402.97
2023-04-15T19:11:45.885Z,100404.38
2023-04-15T19:13:47.427Z,100402.97
2023-04-15T19:15:48.962Z,100411.91
2023-04-15T19:17:50.874Z,100412.19
2023-04-15T19:19:52.377Z,100411.97
2023-04-15T19:21:53.990Z,100412.19
2023-04-15T19:23:57.607Z,100415.44
2023-04-15T19:25:59.215Z,100424.94
2023-04-15T19:28:01.036Z,100420.94
2023-04-15T19:30:02.680Z,100426.34
2023-04-15T19:32:04.586Z,100432.53
2023-04-15T19:34:06.159Z,100430.13
2023-04-15T19:36:07.843Z,100433.94
2023-04-15T19:38:09.390Z,100432.84
2023-04-15T19:40:12.775Z,100434.75
2023-04-15T19:42:14.381Z,100446.56
2023-04-15T19:44:16.100Z,100445.78
2023-04-15T19:46:17.954Z,100446.31
2023-04-15T19:48:19.848Z,100449.56
2023-04-15T19:50:21.398Z,100446.88
2023-04-15T19:52:22.982Z,100455.53
2023-04-15T19:54:24.738Z,100455.84
2023-04-15T19:56:27.712Z,100453.41
2023-04-15T19:58:29.352Z,100457.50
2023-04-15T20:00:31.161Z,100459.13
2023-04-15T20:02:32.890Z,100457.72
2023-04-15T20:04:34.885Z,100466.88
2023-04-15T20:06:36.561Z,100463.00
2023-04-15T20:08:38.285Z,100462.44
2023-04-15T20:10:39.839Z,100462.22
2023-04-15T20:12:50.466Z,100454.41
2023-04-15T20:14:54.550Z,100464.59
2023-04-15T20:16:56.179Z,100461.13
2023-04-15T20:18:57.793Z,100459.72
2023-04-15T20:20:59.438Z,100459.19
2023-04-15T20:23:01.052Z,100468.91
2023-04-15T20:25:03.474Z,100455.66
2023-04-15T20:27:05.042Z,100461.13
2023-04-15T20:29:08.280Z,100463.88
2023-04-15T20:31:10.054Z,100463.88
2023-04-15T20:33:11.763Z,100467.66
2023-04-15T20:35:13.349Z,100470.16
2023-04-15T20:37:15.013Z,100471.09
2023-04-15T20:39:16.575Z,100469.78
2023-04-15T20:41:20.027Z,100474.41
2023-04-15T20:43:21.590Z,100474.69
2023-04-15T20:45:24.475Z,100483.00
2023-04-15T20:47:26.146Z,100471.88
2023-04-15T20:49:27.855Z,100484.03
2023-04-15T20:51:29.407Z,100478.66
2023-04-15T20:53:30.972Z,100483.53
2023-04-15T20:55:32.544Z,100481.66
2023-04-15T20:57:34.080Z,100480.34
2023-04-15T20:59:35.680Z,100476.75
2023-04-15T21:01:38.650Z,100484.28
2023-04-15T21:03:40.399Z,100482.13
2023-04-15T21:05:42.081Z,100486.72
2023-04-15T21:07:43.667Z,100492.97
2023-04-15T21:09:45.251Z,100493.53
2023-04-15T21:12:00.457Z,100498.94
2023-04-15T21:14:02.971Z,100494.84
2023-04-15T21:16:04.987Z,100502.75
2023-04-15T21:18:07.921Z,100496.81
2023-04-15T21:20:10.700Z,100502.53
2023-04-15T21:22:12.273Z,100498.78
2023-04-15T21:24:13.896Z,100504.69
2023-04-15T21:26:15.505Z,100504.69
2023-04-15T21:28:17.109Z,100506.31
2023-04-15T21:30:18.732Z,100503.31
2023-04-15T21:32:20.381Z,100507.34
2023-04-15T21:34:23.377Z,100507.34
2023-04-15T21:36:24.976Z,100509.00
2023-04-15T21:38:26.608Z,100512.25
2023-04-15T21:40:28.337Z,100512.25
2023-04-15T21:42:29.958Z,100511.41
2023-04-15T21:44:31.576Z,100520.56
2023-04-15T21:46:35.227Z,100524.06
2023-04-15T21:48:37.413Z,100523.78
2023-04-15T21:50:40.406Z,100531.38
2023-04-15T21:52:41.964Z,100527.63
2023-04-15T21:54:43.523Z,100533.34
2023-04-15T21:56:45.095Z,100537.41
2023-04-15T21:58:46.708Z,100530.09
2023-04-15T22:00:48.349Z,100534.94
2023-04-15T22:02:50.182Z,100533.03
2023-04-15T22:04:51.864Z,100531.72
2023-04-15T22:06:54.815Z,100536.59
2023-04-15T22:08:57.820Z,100534.97
2023-04-15T22:10:59.625Z,100538.50
2023-04-15T22:13:01.189Z,100534.97
2023-04-15T22:15:02.843Z,100544.78
2023-04-15T22:17:04.506Z,100556.59
2023-04-15T22:19:06.208Z,100544.72
2023-04-15T22:21:07.921Z,100552.25
2023-04-15T22:23:10.945Z,100555.16
2023-04-15T22:25:12.717Z,100564.38
2023-04-15T22:27:14.332Z,100566.81
2023-04-15T22:29:15.943Z,100561.66
2023-04-15T22:31:17.538Z,100566.28
2023-04-15T22:33:19.189Z,100566.81
2023-04-15T22:35:20.829Z,100566.50
2023-04-15T22:37:22.535Z,100569.50
2023-04-15T22:39:25.498Z,100572.47
2023-04-15T22:41:27.073Z,100576.78
2023-04-15T22:43:28.640Z,100587.31
2023-04-15T22:45:30.197Z,100586.50
2023-04-15T22:47:32.280Z,100591.09
2023-04-15T22:49:33.860Z,100598.88
2023-04-15T22:51:35.649Z,100595.94
2023-04-15T22:53:37.210Z,100603.78
2023-04-15T22:55:40.101Z,100602.44
2023-04-15T22:57:41.682Z,100603.50
2023-04-15T22:59:43.277Z,100606.47
2023-04-15T23:01:44.914Z,100600.31
2023-04-15T23:03:57.396Z,100607.03
2023-04-15T23:06:06.856Z,100611.38
2023-04-15T23:08:08.490Z,100606.28
2023-04-15T23:10:10.362Z,100610.03
2023-04-15T23:12:13.533Z,100615.44
2023-04-15T23:14:15.153Z,100615.19
2023-04-15T23:16:16.739Z,100616.53
2023-04-15T23:18:18.320Z,100618.50
2023-04-15T23:20:19.885Z,100617.66
2023-04-15T23:22:21.466Z,100621.94
2023-04-15T23:24:23.025Z,100626.81
2023-04-15T23:26:24.638Z,100617.31
2023-04-15T23:28:27.562Z,100621.63
2023-04-15T23:30:30.533Z,100620.31
2023-04-15T23:32:32.068Z,100631.69
2023-04-15T23:34:33.714Z,100627.91
2023-04-15T23:36:35.246Z,100623.59
2023-04-15T23:38:36.822Z,100625.75
2023-04-15T23:40:38.445Z,100630.03
2023-04-15T23:42:40.099Z,100634.06